Time;durP1;ratioP1;P1;durP2;ratioP2;P2;SDS_P1;SDS_P2;PMS_P1;PMS_P2;Temp;Humidity;BMP_temperature;BMP_pressure;BME280_temperature;BME280_humidity;BME280_pressure;Samples;Min_cycle;Max_cycle;Signal;HPM_P1;HPM_P2
2023/08/10 00:00:00;;;;;;;1.10;0.60;;;13.60;99.90;;;;;;5089966;28;19923;-75
2023/08/10 00:02:26;;;;;;;;;;;13.60;99.90;;;;;;5086949;28;20060;-75
2023/08/10 00:04:52;;;;;;;1.55;0.75;;;13.50;99.90;;;;;;5088130;28;19920;-75
2023/08/10 00:07:18;;;;;;;1.10;0.70;;;13.50;99.90;;;;;;5088001;28;20051;-75
2023/08/10 00:09:43;;;;;;;;;;;13.50;99.90;;;;;;5073295;28;20036;-75
2023/08/10 00:12:09;;;;;;;1.33;0.60;;;13.40;99.90;;;;;;5088958;28;19942;-75
2023/08/10 00:14:35;;;;;;;2.20;0.52;;;13.30;99.90;;;;;;5072348;28;20128;-75
2023/08/10 00:17:00;;;;;;;1.00;0.60;;;13.30;99.90;;;;;;5087304;28;20055;-75
2023/08/10 00:19:26;;;;;;;1.45;0.70;;;13.20;99.90;;;;;;5088448;28;20035;-75
2023/08/10 00:21:52;;;;;;;1.08;0.60;;;13.10;99.90;;;;;;5088152;28;20490;-75
2023/08/10 00:24:17;;;;;;;0.60;0.38;;;13.00;99.90;;;;;;5088472;28;20123;-75
2023/08/10 00:26:43;;;;;;;1.20;0.68;;;13.00;99.90;;;;;;5071740;28;20491;-75
2023/08/10 00:29:09;;;;;;;2.08;0.82;;;12.80;99.90;;;;;;5088318;28;20040;-75
2023/08/10 00:31:34;;;;;;;0.60;0.50;;;12.80;99.90;;;;;;5088059;28;20043;-75
2023/08/10 00:34:00;;;;;;;1.67;0.70;;;12.80;99.90;;;;;;5087711;28;20047;-75
2023/08/10 00:36:26;;;;;;;1.00;0.60;;;12.70;99.90;;;;;;5121786;27;20051;-75
2023/08/10 00:38:51;;;;;;;1.08;0.70;;;12.70;99.90;;;;;;5070718;28;20433;-75
2023/08/10 00:41:17;;;;;;;1.00;0.60;;;12.60;99.90;;;;;;5104665;27;20051;-75
2023/08/10 00:43:43;;;;;;;1.08;0.60;;;12.60;99.90;;;;;;5071320;28;20039;-75
2023/08/10 00:46:11;;;;;;;1.00;0.70;;;12.60;99.90;;;;;;5089555;28;20036;-75
2023/08/10 00:48:37;;;;;;;0.75;0.57;;;12.60;99.90;;;;;;5072950;28;20036;-75
2023/08/10 00:51:03;;;;;;;;;;;12.60;99.90;;;;;;5088064;28;20078;-75
2023/08/10 00:53:29;;;;;;;0.90;0.70;;;12.60;99.90;;;;;;5123140;27;20648;-75
2023/08/10 00:55:56;;;;;;;0.98;0.50;;;12.60;99.90;;;;;;5071119;28;20043;-75
2023/08/10 00:58:22;;;;;;;1.27;0.80;;;12.60;99.90;;;;;;5072009;28;20040;-75
2023/08/10 01:00:48;;;;;;;1.77;0.80;;;12.60;99.90;;;;;;5071535;28;20424;-75
2023/08/10 01:03:15;;;;;;;2.25;0.73;;;12.70;99.90;;;;;;5089030;28;20402;-75
2023/08/10 01:06:19;;;;;;;2.05;0.57;;;12.70;99.90;;;;;;5072509;28;20123;-75
2023/08/10 01:08:58;;;;;;;0.70;0.50;;;12.80;99.90;;;;;;5084307;28;20040;-75
2023/08/10 01:11:35;;;;;;;0.63;0.35;;;12.90;99.90;;;;;;5089219;28;20032;-75
2023/08/10 01:14:10;;;;;;;0.65;0.50;;;12.90;99.90;;;;;;5085545;28;20443;-75
2023/08/10 01:16:40;;;;;;;0.75;0.50;;;13.00;99.90;;;;;;5089503;28;20039;-75
2023/08/10 01:19:23;;;;;;;0.68;0.50;;;13.10;99.90;;;;;;5089142;28;20048;-75
2023/08/10 01:22:07;;;;;;;1.70;0.63;;;13.10;99.90;;;;;;5089527;28;20441;-75
2023/08/10 01:24:42;;;;;;;2.47;0.70;;;13.10;99.90;;;;;;5088710;28;20040;-75
2023/08/10 01:27:12;;;;;;;0.95;0.50;;;13.10;99.90;;;;;;5098220;28;20160;-76
2023/08/10 01:29:38;;;;;;;1.38;0.77;;;13.10;99.90;;;;;;5072403;28;20042;-76
2023/08/10 01:32:04;;;;;;;0.65;0.50;;;13.10;99.90;;;;;;5088715;28;20824;-74
2023/08/10 01:34:30;;;;;;;1.20;0.50;;;13.10;99.90;;;;;;5088890;28;20044;-74
2023/08/10 01:36:57;;;;;;;1.00;0.50;;;13.10;99.90;;;;;;5088894;28;20040;-74
2023/08/10 01:39:22;;;;;;;1.27;0.60;;;13.10;99.90;;;;;;5089344;28;20479;-74
2023/08/10 01:41:48;;;;;;;0.85;0.40;;;13.10;99.90;;;;;;5089343;28;20089;-74
2023/08/10 01:44:14;;;;;;;2.13;0.73;;;13.10;99.90;;;;;;5123376;28;20054;-74
2023/08/10 01:46:42;;;;;;;0.68;0.55;;;13.10;99.90;;;;;;5088738;28;20853;-74
2023/08/10 01:49:10;;;;;;;1.33;0.93;;;13.20;99.90;;;;;;5123144;28;20126;-74
2023/08/10 01:51:39;;;;;;;0.45;0.40;;;13.10;99.90;;;;;;5089114;28;20074;-74
2023/08/10 01:54:08;;;;;;;1.13;0.68;;;13.10;99.90;;;;;;5088769;28;20040;-74
2023/08/10 01:56:34;;;;;;;1.13;0.60;;;13.20;99.90;;;;;;5089357;28;20048;-74
2023/08/10 01:59:00;;;;;;;0.90;0.60;;;13.20;99.90;;;;;;5072078;28;20094;-76
2023/08/10 02:01:25;;;;;;;;;;;13.10;99.90;;;;;;5070053;28;20104;-76
2023/08/10 02:03:51;;;;;;;1.05;0.65;;;13.10;99.90;;;;;;5102316;28;19931;-74
2023/08/10 02:06:17;;;;;;;0.88;0.55;;;13.10;99.90;;;;;;5090502;28;20044;-75
2023/08/10 02:08:43;;;;;;;0.47;0.40;;;13.10;99.90;;;;;;5085431;28;20115;-75
2023/08/10 02:11:08;;;;;;;0.90;0.60;;;13.10;99.90;;;;;;5071686;28;20028;-75
2023/08/10 02:13:34;;;;;;;0.80;0.50;;;13.00;99.90;;;;;;5086072;28;20064;-75
2023/08/10 02:16:00;;;;;;;1.17;0.60;;;13.00;99.90;;;;;;5087309;28;20051;-75
2023/08/10 02:18:26;;;;;;;0.95;0.57;;;13.00;99.90;;;;;;5122834;28;20056;-75
2023/08/10 02:20:51;;;;;;;0.77;0.60;;;13.00;99.90;;;;;;5077593;28;20379;-75
2023/08/10 02:23:17;;;;;;;0.70;0.50;;;13.00;99.90;;;;;;5089408;28;20039;-74
2023/08/10 02:25:43;;;;;;;1.15;0.60;;;13.00;99.90;;;;;;5090964;28;20509;-75
2023/08/10 02:28:09;;;;;;;0.90;0.45;;;13.00;99.90;;;;;;5091817;28;20036;-75
2023/08/10 02:30:35;;;;;;;0.60;0.50;;;13.00;99.90;;;;;;5075502;28;20039;-75
2023/08/10 02:33:00;;;;;;;0.55;0.50;;;13.00;99.90;;;;;;5074932;28;20122;-75
2023/08/10 02:35:26;;;;;;;0.60;0.50;;;13.00;99.90;;;;;;5108610;28;20411;-75
2023/08/10 02:37:51;;;;;;;0.50;0.40;;;13.00;99.90;;;;;;5075040;28;20055;-75
2023/08/10 02:40:17;;;;;;;1.00;0.60;;;13.00;99.90;;;;;;5092177;28;20226;-75
2023/08/10 02:42:43;;;;;;;0.90;0.60;;;13.00;99.90;;;;;;5091672;28;20047;-75
2023/08/10 02:45:09;;;;;;;0.88;0.60;;;13.00;99.90;;;;;;5108661;28;20048;-74
2023/08/10 02:47:35;;;;;;;1.17;0.70;;;13.10;99.90;;;;;;5091725;28;20047;-75
2023/08/10 02:50:02;;;;;;;;;;;13.10;99.90;;;;;;5081167;28;20403;-74
2023/08/10 02:52:27;;;;;;;1.40;0.60;;;13.00;99.90;;;;;;5091855;28;19923;-75
2023/08/10 02:54:53;;;;;;;1.08;0.60;;;13.00;99.90;;;;;;5091451;28;20044;-75
2023/08/10 02:57:18;;;;;;;1.08;0.57;;;13.10;99.90;;;;;;5074884;28;20035;-75
2023/08/10 02:59:44;;;;;;;1.70;0.70;;;13.10;99.90;;;;;;5091722;28;20151;-75
2023/08/10 03:02:10;;;;;;;1.02;0.65;;;13.00;99.90;;;;;;5091770;28;20060;-75
2023/08/10 03:04:36;;;;;;;0.98;0.45;;;13.00;99.90;;;;;;5090763;28;20079;-75
2023/08/10 03:07:01;;;;;;;0.63;0.50;;;13.00;99.90;;;;;;5074586;28;20039;-75
2023/08/10 03:09:27;;;;;;;0.80;0.50;;;13.00;99.90;;;;;;5091215;28;20036;-75
2023/08/10 03:11:53;;;;;;;1.17;0.70;;;13.00;99.90;;;;;;5091458;28;20544;-74
2023/08/10 03:14:19;;;;;;;1.58;0.60;;;13.00;99.90;;;;;;5090948;28;20044;-75
2023/08/10 03:16:44;;;;;;;1.08;0.70;;;13.00;99.90;;;;;;5091249;28;20093;-75
2023/08/10 03:19:10;;;;;;;1.20;0.60;;;13.00;99.90;;;;;;5091164;28;20052;-75
2023/08/10 03:21:36;;;;;;;1.38;0.77;;;12.90;99.90;;;;;;5091505;28;20102;-75
2023/08/10 03:24:02;;;;;;;1.25;0.80;;;13.00;99.90;;;;;;5057212;28;20111;-75
2023/08/10 03:26:27;;;;;;;0.80;0.60;;;13.00;99.90;;;;;;5091461;28;20036;-74
2023/08/10 03:28:53;;;;;;;0.95;0.50;;;13.00;99.90;;;;;;5090546;28;20406;-74
2023/08/10 03:31:19;;;;;;;0.60;0.57;;;13.00;99.90;;;;;;5091208;28;20133;-74
2023/08/10 03:33:44;;;;;;;1.45;0.77;;;13.00;99.90;;;;;;5090223;28;20032;-75
2023/08/10 03:36:10;;;;;;;1.20;0.60;;;13.10;99.90;;;;;;5090841;28;20122;-74
2023/08/10 03:38:36;;;;;;;0.75;0.50;;;13.00;99.90;;;;;;5090398;28;20052;-74
2023/08/10 03:41:01;;;;;;;1.15;0.60;;;13.10;99.90;;;;;;5074185;28;20044;-75
2023/08/10 03:43:27;;;;;;;0.85;0.60;;;13.00;99.90;;;;;;5088751;28;20075;-75
2023/08/10 03:45:53;;;;;;;0.40;0.40;;;13.10;99.90;;;;;;5107449;28;20095;-75
2023/08/10 03:48:19;;;;;;;1.00;0.70;;;13.10;99.90;;;;;;5090921;28;20044;-74
2023/08/10 03:50:45;;;;;;;0.57;0.50;;;13.10;99.90;;;;;;5073694;28;20487;-74
2023/08/10 03:53:10;;;;;;;0.63;0.50;;;13.10;99.90;;;;;;5073311;28;20059;-74
2023/08/10 03:55:36;;;;;;;0.70;0.60;;;13.10;99.90;;;;;;5090353;28;20138;-74
2023/08/10 03:58:02;;;;;;;1.02;0.70;;;13.10;99.90;;;;;;5090199;28;20113;-75
2023/08/10 04:00:28;;;;;;;0.60;0.60;;;13.10;99.90;;;;;;5090633;28;20040;-75
2023/08/10 04:02:53;;;;;;;1.00;0.70;;;13.10;99.90;;;;;;5089215;28;20415;-75
2023/08/10 04:05:19;;;;;;;0.60;0.60;;;13.10;99.90;;;;;;5090041;28;20059;-74
2023/08/10 04:07:45;;;;;;;1.88;0.80;;;13.10;99.90;;;;;;5073086;28;20040;-75
2023/08/10 04:10:11;;;;;;;1.30;0.70;;;13.20;99.90;;;;;;5099785;28;20051;-74
2023/08/10 04:12:38;;;;;;;0.88;0.70;;;13.20;99.90;;;;;;5087107;28;20044;-75
2023/08/10 04:15:06;;;;;;;0.68;0.60;;;13.10;99.90;;;;;;5085536;28;20088;-74
2023/08/10 04:17:32;;;;;;;0.70;0.60;;;13.20;99.90;;;;;;5071133;28;20126;-76
2023/08/10 04:19:58;;;;;;;1.30;0.80;;;13.10;99.90;;;;;;5089275;28;20180;-75
2023/08/10 04:22:24;;;;;;;0.70;0.55;;;13.20;99.90;;;;;;5088000;28;20044;-75
2023/08/10 04:24:51;;;;;;;0.50;0.50;;;13.20;99.90;;;;;;5087936;28;20039;-75
2023/08/10 04:27:17;;;;;;;0.90;0.63;;;13.20;99.90;;;;;;5083084;28;20044;-75
2023/08/10 04:29:46;;;;;;;1.20;0.70;;;13.20;99.90;;;;;;5087439;28;20036;-74
2023/08/10 04:32:13;;;;;;;1.08;0.57;;;13.20;99.90;;;;;;5088498;28;20036;-75
2023/08/10 04:34:39;;;;;;;0.82;0.60;;;13.20;99.90;;;;;;5087407;28;20480;-75
2023/08/10 04:37:05;;;;;;;1.20;0.77;;;13.20;99.90;;;;;;5120217;27;20035;-75
2023/08/10 04:39:32;;;;;;;;;;;13.30;99.90;;;;;;5088442;28;20491;-74
2023/08/10 04:41:58;;;;;;;1.98;0.90;;;13.30;99.90;;;;;;5089305;28;19985;-74
2023/08/10 04:44:24;;;;;;;1.02;0.73;;;13.30;99.90;;;;;;5088837;28;20040;-74
2023/08/10 04:46:50;;;;;;;0.93;0.60;;;13.30;99.90;;;;;;5087976;28;20047;-75
2023/08/10 04:49:15;;;;;;;2.25;0.80;;;13.40;99.90;;;;;;5075241;28;20058;-75
2023/08/10 04:51:42;;;;;;;1.45;0.90;;;13.40;99.90;;;;;;5089181;28;20032;-75
2023/08/10 04:54:08;;;;;;;;;;;13.40;99.90;;;;;;5089390;28;20044;-75
2023/08/10 04:56:35;;;;;;;1.20;0.80;;;13.40;99.90;;;;;;5089236;28;19920;-75
2023/08/10 04:59:02;;;;;;;0.88;0.70;;;13.40;99.90;;;;;;5087185;28;20115;-76
2023/08/10 05:01:28;;;;;;;2.03;0.75;;;13.50;99.90;;;;;;5087340;28;20050;-75
2023/08/10 05:03:55;;;;;;;1.38;0.80;;;13.50;99.90;;;;;;5086726;28;20080;-75
2023/08/10 05:06:21;;;;;;;0.60;0.50;;;13.50;99.90;;;;;;5088912;28;20461;-75
2023/08/10 05:08:47;;;;;;;1.63;0.70;;;13.50;99.90;;;;;;5086488;28;20127;-76
2023/08/10 05:11:13;;;;;;;;;;;13.50;99.90;;;;;;5119893;27;20047;-75
2023/08/10 05:13:38;;;;;;;0.80;0.63;;;13.50;99.90;;;;;;5086374;28;19916;-75
2023/08/10 05:16:04;;;;;;;1.58;0.80;;;13.60;99.90;;;;;;5072323;28;20052;-75
2023/08/10 05:18:30;;;;;;;1.08;0.70;;;13.60;99.90;;;;;;5101046;28;20040;-75
2023/08/10 05:21:00;;;;;;;1.40;0.93;;;13.60;99.90;;;;;;5088256;28;20275;-75
2023/08/10 05:23:25;;;;;;;1.05;0.68;;;13.70;99.90;;;;;;5084097;28;20080;-75
2023/08/10 05:25:51;;;;;;;0.88;0.63;;;13.70;99.90;;;;;;5084402;28;20079;-75
2023/08/10 05:28:17;;;;;;;0.60;0.60;;;13.70;99.90;;;;;;5101287;28;20032;-76
2023/08/10 05:30:43;;;;;;;1.70;0.77;;;13.80;99.90;;;;;;5088408;28;20529;-75
2023/08/10 05:33:09;;;;;;;0.98;0.70;;;13.80;99.90;;;;;;5091539;28;20562;-75
2023/08/10 05:35:35;;;;;;;1.92;0.90;;;13.80;99.90;;;;;;5062508;28;20645;-75
2023/08/10 05:38:02;;;;;;;1.70;0.70;;;13.90;99.90;;;;;;5083687;28;20046;-82
2023/08/10 05:40:28;;;;;;;1.30;1.00;;;13.90;99.90;;;;;;5091418;28;20044;-76
2023/08/10 05:42:53;;;;;;;1.02;0.70;;;13.90;99.90;;;;;;5069732;28;20052;-75
2023/08/10 05:45:19;;;;;;;1.65;0.80;;;13.90;99.90;;;;;;5054786;28;20106;-75
2023/08/10 05:47:46;;;;;;;0.75;0.68;;;13.90;99.90;;;;;;5071748;28;20112;-75
2023/08/10 05:50:15;;;;;;;0.77;0.60;;;14.00;99.90;;;;;;5070933;28;20079;-75
2023/08/10 05:52:42;;;;;;;0.95;0.80;;;14.10;99.90;;;;;;5086658;28;20048;-76
2023/08/10 05:55:08;;;;;;;0.82;0.70;;;14.10;99.90;;;;;;5087238;28;20122;-76
2023/08/10 05:57:34;;;;;;;0.50;0.50;;;14.10;99.90;;;;;;5087730;28;20115;-76
2023/08/10 06:00:00;;;;;;;1.10;0.70;;;14.10;99.90;;;;;;5085629;28;20545;-76
2023/08/10 06:02:27;;;;;;;0.90;0.70;;;14.10;99.90;;;;;;5072758;28;20040;-78
2023/08/10 06:04:52;;;;;;;1.20;0.82;;;14.20;99.90;;;;;;5087278;28;20106;-77
2023/08/10 06:07:18;;;;;;;1.27;0.90;;;14.10;99.90;;;;;;5085573;28;20425;-76
2023/08/10 06:09:44;;;;;;;1.20;0.98;;;14.10;99.90;;;;;;5117341;27;20402;-76
2023/08/10 06:12:10;;;;;;;1.13;1.00;;;14.20;99.90;;;;;;5088588;28;20036;-76
2023/08/10 06:14:37;;;;;;;1.67;1.10;;;14.20;99.90;;;;;;5088945;28;20040;-76
2023/08/10 06:17:04;;;;;;;1.10;1.00;;;14.20;99.90;;;;;;5081025;28;20064;-76
2023/08/10 06:19:31;;;;;;;1.20;0.90;;;14.40;99.90;;;;;;5090737;28;20047;-76
2023/08/10 06:21:57;;;;;;;1.38;0.93;;;14.40;99.90;;;;;;5091886;28;20083;-76
2023/08/10 06:24:23;;;;;;;1.88;1.00;;;14.40;99.90;;;;;;5088759;28;20075;-76
2023/08/10 06:26:51;;;;;;;2.05;0.95;;;14.50;99.90;;;;;;5082576;28;20070;-76
2023/08/10 06:29:17;;;;;;;0.88;0.60;;;14.60;99.90;;;;;;5068467;28;20037;-76
2023/08/10 06:31:43;;;;;;;0.80;0.70;;;14.60;99.90;;;;;;5063555;28;20053;-76
2023/08/10 06:34:09;;;;;;;1.45;0.77;;;14.80;99.90;;;;;;5042583;28;20090;-76
2023/08/10 06:36:34;;;;;;;0.95;0.70;;;14.90;99.90;;;;;;5069091;28;20123;-75
2023/08/10 06:39:01;;;;;;;1.90;0.90;;;15.00;99.90;;;;;;5090894;28;20040;-76
2023/08/10 06:41:27;;;;;;;1.13;0.75;;;15.10;99.90;;;;;;5054886;28;20051;-76
2023/08/10 06:43:52;;;;;;;2.67;0.85;;;15.30;99.90;;;;;;5072535;28;20040;-76
2023/08/10 06:46:18;;;;;;;0.77;0.60;;;15.40;99.90;;;;;;5092196;28;20538;-77
2023/08/10 06:48:44;;;;;;;1.67;0.70;;;15.50;99.90;;;;;;5091180;28;20487;-76
2023/08/10 06:51:09;;;;;;;1.48;0.80;;;15.60;99.90;;;;;;5055257;28;20044;-76
2023/08/10 06:53:35;;;;;;;1.08;0.70;;;15.70;99.90;;;;;;5087574;28;20565;-76
2023/08/10 06:56:00;;;;;;;0.98;0.70;;;15.70;99.90;;;;;;5089805;28;20554;-76
2023/08/10 06:58:26;;;;;;;1.35;0.90;;;15.80;99.90;;;;;;5098875;28;20086;-76
2023/08/10 07:00:52;;;;;;;1.25;0.73;;;16.00;99.90;;;;;;5091546;28;20086;-76
2023/08/10 07:03:18;;;;;;;1.98;0.85;;;16.20;99.90;;;;;;5091352;28;20051;-76
2023/08/10 07:05:43;;;;;;;2.97;1.00;;;16.30;99.90;;;;;;5090963;28;20048;-76
2023/08/10 07:08:10;;;;;;;0.70;0.70;;;16.30;99.90;;;;;;5074936;28;20111;-77
2023/08/10 07:10:36;;;;;;;;;;;16.40;99.90;;;;;;5058802;28;20122;-77
2023/08/10 07:13:01;;;;;;;1.75;0.90;;;16.60;99.90;;;;;;5084491;28;19917;-77
2023/08/10 07:15:27;;;;;;;1.88;0.75;;;16.60;99.90;;;;;;5082825;28;20039;-77
2023/08/10 07:17:54;;;;;;;2.28;0.70;;;16.80;1.00;;;;;;5057993;28;20885;-77
2023/08/10 07:20:20;;;;;;;1.90;0.90;;;16.90;99.90;;;;;;5074341;28;20475;-77
2023/08/10 07:22:47;;;;;;;1.40;0.68;;;17.00;99.90;;;;;;5091363;28;20055;-77
2023/08/10 07:25:16;;;;;;;2.22;0.68;;;17.20;99.90;;;;;;5087486;28;20385;-77
2023/08/10 07:27:43;;;;;;;2.25;0.50;;;17.30;99.90;;;;;;5085243;28;20040;-77
2023/08/10 07:30:10;;;;;;;1.88;0.77;;;17.40;99.90;;;;;;5091305;28;20071;-76
2023/08/10 07:32:36;;;;;;;1.92;0.75;;;17.60;99.90;;;;;;5072964;28;20059;-77
2023/08/10 07:35:03;;;;;;;2.25;0.90;;;17.60;1.00;;;;;;5072953;28;20181;-78
2023/08/10 07:37:34;;;;;;;1.52;0.70;;;17.80;1.00;;;;;;5059434;28;20043;-77
2023/08/10 07:40:00;;;;;;;1.73;0.77;;;17.80;6.70;;;;;;5064396;28;20047;-77
2023/08/10 07:42:25;;;;;;;;;;;18.10;99.90;;;;;;5090257;28;20043;-77
2023/08/10 07:44:51;;;;;;;3.55;1.02;;;18.30;99.90;;;;;;5090874;28;20003;-77
2023/08/10 07:47:17;;;;;;;2.05;0.70;;;18.30;99.90;;;;;;5090796;28;20058;-76
2023/08/10 07:49:45;;;;;;;2.30;0.43;;;18.20;99.90;;;;;;5074113;28;20051;-77
2023/08/10 07:52:11;;;;;;;3.65;0.80;;;18.20;99.90;;;;;;5090698;28;20130;-77
2023/08/10 07:54:37;;;;;;;;;;;18.20;99.90;;;;;;5073989;28;20044;-77
2023/08/10 07:57:03;;;;;;;0.93;0.50;;;18.30;91.50;;;;;;5073463;28;20115;-77
2023/08/10 07:59:29;;;;;;;2.08;0.70;;;18.30;99.90;;;;;;5107239;28;20115;-77
2023/08/10 08:01:54;;;;;;;;;;;18.10;1.00;;;;;;5091376;28;20123;-77
2023/08/10 08:04:20;;;;;;;1.27;0.77;;;18.00;99.90;;;;;;5106964;28;20383;-77
2023/08/10 08:06:46;;;;;;;;;;;18.00;7.50;;;;;;5073776;28;20130;-76
2023/08/10 08:09:12;;;;;;;1.20;0.63;;;18.00;1.00;;;;;;5090308;28;19920;-77
2023/08/10 08:11:39;;;;;;;0.85;0.50;;;18.10;60.50;;;;;;5089840;28;20074;-77
2023/08/10 08:14:05;;;;;;;1.13;0.60;;;18.10;49.20;;;;;;5089857;28;20459;-77
2023/08/10 08:16:30;;;;;;;;;;;18.10;1.00;;;;;;5090591;28;20101;-77
2023/08/10 08:18:56;;;;;;;0.45;0.32;;;18.10;99.90;;;;;;5090171;28;19920;-77
2023/08/10 08:21:24;;;;;;;2.00;0.52;;;18.10;1.00;;;;;;5089507;28;20044;-77
2023/08/10 08:23:51;;;;;;;0.80;0.47;;;18.10;1.00;;;;;;5078181;28;20115;-77
2023/08/10 08:26:18;;;;;;;1.45;0.68;;;18.00;99.90;;;;;;5080240;28;20076;-76
2023/08/10 08:28:45;;;;;;;1.13;0.43;;;18.10;1.00;;;;;;5089029;28;20111;-76
2023/08/10 08:31:11;;;;;;;2.10;0.68;;;18.10;1.00;;;;;;5073472;28;20722;-76
2023/08/10 08:33:39;;;;;;;2.33;0.70;;;18.00;1.00;;;;;;5072714;28;20059;-76
2023/08/10 08:36:05;;;;;;;1.58;0.73;;;18.10;1.00;;;;;;5085408;28;20072;-78
2023/08/10 08:38:32;;;;;;;2.20;0.60;;;18.00;1.00;;;;;;5085422;28;20052;-78
2023/08/10 08:41:01;;;;;;;0.95;0.50;;;17.90;1.00;;;;;;5089628;28;20519;-77
2023/08/10 08:43:27;;;;;;;0.95;0.50;;;17.90;1.00;;;;;;5072960;28;20047;-79
2023/08/10 08:45:53;;;;;;;;;;;17.90;1.00;;;;;;5073916;28;20115;-79
2023/08/10 08:48:18;;;;;;;1.48;0.60;;;17.90;99.90;;;;;;5073093;28;20408;-79
2023/08/10 08:50:48;;;;;;;;;;;17.90;99.90;;;;;;5073312;28;20459;-78
2023/08/10 08:53:14;;;;;;;2.70;0.65;;;18.00;1.00;;;;;;5099878;28;19920;-79
2023/08/10 08:55:40;;;;;;;1.20;0.60;;;18.00;1.00;;;;;;5086006;28;20176;-78
2023/08/10 08:58:06;;;;;;;1.45;0.70;;;17.90;1.00;;;;;;5084233;28;20097;-79
2023/08/10 09:00:32;;;;;;;1.42;0.65;;;18.00;82.50;;;;;;5098281;28;20109;-79
2023/08/10 09:02:58;;;;;;;;;;;18.10;2.10;;;;;;5073559;28;20463;-78
2023/08/10 09:05:24;;;;;;;1.70;0.55;;;18.10;6.00;;;;;;5089470;28;19924;-79
2023/08/10 09:07:50;;;;;;;;;;;18.20;86.00;;;;;;5057049;28;20054;-78
2023/08/10 09:10:16;;;;;;;2.42;0.57;;;18.20;1.00;;;;;;5106561;28;19916;-77
2023/08/10 09:12:41;;;;;;;;;;;18.10;1.00;;;;;;5089782;28;20054;-77
2023/08/10 09:15:15;;;;;;;1.45;0.60;;;18.10;1.00;;;;;;5071902;28;19920;-77
2023/08/10 09:17:49;;;;;;;2.53;0.70;;;18.20;1.00;;;;;;5089715;28;20075;-76
2023/08/10 09:20:27;;;;;;;1.13;0.57;;;18.10;1.00;;;;;;5089451;28;20129;-77
2023/08/10 09:22:54;;;;;;;0.98;0.40;;;18.10;1.00;;;;;;5081192;28;20044;-76
2023/08/10 09:25:21;;;;;;;0.98;0.73;;;18.20;13.40;;;;;;5084437;28;20048;-76
2023/08/10 09:27:48;;;;;;;0.98;0.50;;;18.30;66.50;;;;;;5087928;28;20082;-76
2023/08/10 09:30:14;;;;;;;1.85;0.60;;;18.40;1.00;;;;;;5069377;28;20066;-76
2023/08/10 09:32:40;;;;;;;1.02;0.55;;;18.40;1.00;;;;;;5071638;28;20048;-76
2023/08/10 09:35:15;;;;;;;1.20;0.43;;;18.50;1.00;;;;;;5106027;28;20475;-76
2023/08/10 09:37:41;;;;;;;0.88;0.50;;;18.60;99.90;;;;;;5089721;28;20075;-73
2023/08/10 09:40:10;;;;;;;2.60;0.57;;;18.70;1.00;;;;;;5091897;28;20132;-74
2023/08/10 09:42:38;;;;;;;1.80;0.70;;;18.60;99.90;;;;;;5092685;28;20088;-76
2023/08/10 09:45:09;;;;;;;1.35;0.60;;;18.60;99.90;;;;;;5093124;28;20035;-76
2023/08/10 09:47:38;;;;;;;2.03;0.70;;;18.60;99.90;;;;;;5092940;28;20475;-76
2023/08/10 09:50:06;;;;;;;1.25;0.60;;;18.50;99.90;;;;;;5092561;28;20143;-76
2023/08/10 09:52:34;;;;;;;1.00;0.50;;;18.50;99.90;;;;;;5076016;28;20051;-76
2023/08/10 09:55:00;;;;;;;1.85;0.50;;;18.60;1.00;;;;;;5092320;28;20515;-76
2023/08/10 09:57:27;;;;;;;;;;;18.60;99.90;;;;;;5127672;27;20094;-76
2023/08/10 09:59:54;;;;;;;1.35;0.57;;;18.60;99.90;;;;;;5092735;28;19965;-76
2023/08/10 10:02:21;;;;;;;1.10;0.43;;;18.60;1.00;;;;;;5109901;28;20032;-76
2023/08/10 10:04:47;;;;;;;1.42;0.57;;;18.70;1.00;;;;;;5092576;28;20089;-76
2023/08/10 10:07:16;;;;;;;1.10;0.45;;;18.80;1.00;;;;;;5093058;28;20039;-76
2023/08/10 10:09:43;;;;;;;0.82;0.38;;;18.70;99.90;;;;;;5092743;28;20043;-76
2023/08/10 10:12:14;;;;;;;1.05;0.40;;;18.70;1.00;;;;;;5075702;28;20075;-76
2023/08/10 10:14:43;;;;;;;0.70;0.40;;;18.80;1.00;;;;;;5092450;28;20081;-76
2023/08/10 10:17:14;;;;;;;0.98;0.60;;;18.70;1.00;;;;;;5092029;28;20040;-76
2023/08/10 10:19:40;;;;;;;2.50;0.50;;;18.80;99.90;;;;;;5092574;28;20082;-76
2023/08/10 10:22:06;;;;;;;;;;;18.70;99.90;;;;;;5092913;28;20050;-76
2023/08/10 10:24:34;;;;;;;2.03;0.40;;;18.80;99.90;;;;;;5092305;28;20002;-76
2023/08/10 10:27:11;;;;;;;1.52;0.90;;;18.80;1.00;;;;;;5092276;28;20830;-76
2023/08/10 10:29:40;;;;;;;1.15;0.45;;;18.80;1.00;;;;;;5075363;28;20113;-76
2023/08/10 10:32:21;;;;;;;0.98;0.50;;;18.80;99.90;;;;;;5092142;28;20040;-77
2023/08/10 10:34:50;;;;;;;2.90;0.82;;;18.70;99.90;;;;;;5075385;28;20075;-77
2023/08/10 10:37:18;;;;;;;2.25;0.50;;;18.70;1.00;;;;;;5075528;28;20441;-77
2023/08/10 10:39:51;;;;;;;0.60;0.30;;;18.70;1.00;;;;;;5089305;28;20092;-76
2023/08/10 10:42:18;;;;;;;0.90;0.55;;;18.90;35.00;;;;;;5091162;28;20127;-77
2023/08/10 10:45:01;;;;;;;1.73;0.60;;;19.00;1.00;;;;;;5092129;28;20119;-77
2023/08/10 10:47:34;;;;;;;1.40;0.60;;;19.00;1.00;;;;;;5075716;28;20421;-77
2023/08/10 10:50:00;;;;;;;1.65;0.60;;;19.10;1.00;;;;;;5075092;28;20068;-77
2023/08/10 10:52:36;;;;;;;;;;;19.20;46.80;;;;;;5087295;28;20074;-77
2023/08/10 10:55:03;;;;;;;0.68;0.35;;;19.30;13.50;;;;;;5075180;28;19926;-77
2023/08/10 10:57:31;;;;;;;1.30;0.40;;;19.40;1.00;;;;;;5091903;28;20048;-76
2023/08/10 10:59:58;;;;;;;1.23;0.47;;;19.50;1.00;;;;;;5075311;28;20086;-76
2023/08/10 11:02:25;;;;;;;0.82;0.57;;;19.80;1.00;;;;;;5076034;28;20465;-76
2023/08/10 11:04:51;;;;;;;1.63;0.63;;;19.90;99.90;;;;;;5091616;28;20052;-77
2023/08/10 11:07:17;;;;;;;1.20;0.50;;;19.80;99.90;;;;;;5091758;28;20094;-77
2023/08/10 11:09:43;;;;;;;0.93;0.60;;;19.80;1.00;;;;;;5090640;28;20036;-77
2023/08/10 11:12:09;;;;;;;;;;;19.80;99.90;;;;;;5073335;28;20501;-77
2023/08/10 11:14:36;;;;;;;1.10;0.70;;;19.80;1.00;;;;;;5089462;28;19920;-77
2023/08/10 11:17:02;;;;;;;2.53;0.95;;;19.80;99.90;;;;;;5079814;28;20101;-77
2023/08/10 11:19:33;;;;;;;1.25;0.47;;;19.70;99.90;;;;;;5087057;28;20091;-77
2023/08/10 11:21:58;;;;;;;1.50;0.50;;;19.80;99.90;;;;;;5074066;28;20138;-77
2023/08/10 11:24:28;;;;;;;1.02;0.52;;;19.90;1.00;;;;;;5073163;28;20126;-77
2023/08/10 11:26:54;;;;;;;1.98;0.52;;;19.90;99.90;;;;;;5090028;28;20051;-77
2023/08/10 11:29:20;;;;;;;0.93;0.50;;;20.00;99.90;;;;;;5090226;28;20044;-77
2023/08/10 11:31:46;;;;;;;1.30;0.60;;;20.00;99.90;;;;;;5085494;28;20412;-77
2023/08/10 11:34:20;;;;;;;1.45;0.60;;;20.10;99.90;;;;;;5065489;28;20055;-77
2023/08/10 11:36:46;;;;;;;1.92;0.70;;;20.20;99.90;;;;;;5083391;28;20641;-77
2023/08/10 11:39:12;;;;;;;5.00;0.90;;;20.10;99.90;;;;;;5066717;28;20059;-76
2023/08/10 11:41:45;;;;;;;2.28;0.80;;;19.90;99.90;;;;;;5081446;28;20071;-77
2023/08/10 11:44:32;;;;;;;2.22;0.90;;;19.80;99.90;;;;;;5062335;28;20086;-76
2023/08/10 11:46:58;;;;;;;2.00;0.80;;;19.70;99.90;;;;;;5063846;28;20101;-76
2023/08/10 11:49:32;;;;;;;1.90;0.80;;;19.80;99.90;;;;;;5081310;28;20124;-76
2023/08/10 11:52:02;;;;;;;1.02;0.63;;;19.70;99.90;;;;;;5065209;28;20105;-77
2023/08/10 11:54:29;;;;;;;1.13;0.68;;;19.80;99.90;;;;;;5080323;28;20079;-76
2023/08/10 11:56:55;;;;;;;1.90;0.70;;;19.80;99.90;;;;;;5071596;28;20499;-76
2023/08/10 11:59:21;;;;;;;1.35;0.68;;;19.70;1.00;;;;;;5062131;28;20144;-76
2023/08/10 12:01:52;;;;;;;0.93;0.55;;;19.60;1.00;;;;;;5067446;28;20125;-76
2023/08/10 12:04:18;;;;;;;1.25;0.57;;;19.70;92.90;;;;;;5087515;28;20048;-76
2023/08/10 12:06:44;;;;;;;0.73;0.55;;;19.80;91.90;;;;;;5090383;28;20055;-76
2023/08/10 12:09:11;;;;;;;1.48;0.70;;;19.80;93.50;;;;;;5090451;28;20048;-75
2023/08/10 12:11:45;;;;;;;1.33;0.60;;;19.80;66.00;;;;;;5073387;28;20040;-76
2023/08/10 12:14:10;;;;;;;1.40;0.63;;;19.80;99.90;;;;;;5089938;28;20051;-76
2023/08/10 12:16:36;;;;;;;1.55;0.80;;;19.80;93.80;;;;;;5090456;28;20040;-76
2023/08/10 12:19:02;;;;;;;2.15;0.77;;;19.80;77.80;;;;;;5090437;28;20406;-76
2023/08/10 12:21:28;;;;;;;2.08;0.95;;;19.70;99.70;;;;;;5073052;28;20040;-76
2023/08/10 12:23:55;;;;;;;1.20;0.77;;;19.50;99.90;;;;;;5073218;28;20043;-76
2023/08/10 12:26:21;;;;;;;1.38;0.80;;;19.50;99.90;;;;;;5073647;28;20479;-76
2023/08/10 12:28:47;;;;;;;1.05;0.60;;;19.40;99.90;;;;;;5089792;28;20483;-76
2023/08/10 12:31:13;;;;;;;1.38;0.60;;;19.40;99.90;;;;;;5072976;28;20044;-76
2023/08/10 12:33:40;;;;;;;;;;;19.30;1.00;;;;;;5090318;28;20057;-76
2023/08/10 12:36:06;;;;;;;1.70;0.63;;;19.20;1.00;;;;;;5089836;28;20419;-76
2023/08/10 12:38:32;;;;;;;1.50;0.70;;;19.20;29.10;;;;;;5088891;28;20052;-76
2023/08/10 12:40:57;;;;;;;;;;;19.20;1.00;;;;;;5089671;28;20039;-77
2023/08/10 12:43:23;;;;;;;1.30;0.77;;;19.20;84.20;;;;;;5123502;27;20452;-77
2023/08/10 12:45:50;;;;;;;2.10;0.80;;;19.10;98.20;;;;;;5106344;28;20078;-77
2023/08/10 12:48:15;;;;;;;1.95;0.70;;;19.10;99.90;;;;;;5072214;28;20144;-77
2023/08/10 12:50:41;;;;;;;;;;;19.00;99.90;;;;;;5073016;28;20509;-76
2023/08/10 12:53:08;;;;;;;1.45;0.52;;;19.10;99.90;;;;;;5072891;28;19919;-77